Main page
METAR-TAF:

METAR-TAF

Airports :

Graham Municipal Airport

Graham, Texas, United States

latitude: 33-06-36N, longitude: 098-33-19W, elevation: 1122 ft

Current weather observation

The report was made 15 minutes ago, at 19:55 UTC
Wind 14 mph from the South/Southeast with gusts up to 22 mph
Temperature 91°F
Humidity 49%
Pressure 29.75 in. Hg
Visibility: 10 miles
Few clouds at a height of 5000 ft

METAR: KRPH 171955Z AUTO 15012G19KT 10SM FEW050 33/21 A2975 RMK AO2 T03320214

Time: 15:10 (20:10 UTC)


TAF: missing

Weather observations and forecasts of more than 4000 airports (METAR and TAF reports).

The available stations are represented by yellow and red dots on the map.

Hover mouse over dot to see the name of the station.

Then click to see weather observations and forecasts.

To change the map : click on the green buttons with a black cross to zoom in, on the green button with a dash to zoom out, or on the green arrows for adjacent maps.


METAR-TAF: